sensor_id;sensor_type;location;lat;lon;timestamp;pressure;altitude;pressure_sealevel;temperature;humidity
42647;BME280;31319;53.678;-6.254;2022-09-09T00:04:32;100430.88;;;24.04;52.28
42647;BME280;31319;53.678;-6.254;2022-09-09T00:07:13;100433.25;;;24.06;52.04
42647;BME280;31319;53.678;-6.254;2022-09-09T00:10:05;100429.75;;;23.98;52.75
42647;BME280;31319;53.678;-6.254;2022-09-09T00:18:14;100428.13;;;24.01;52.75
42647;BME280;31319;53.678;-6.254;2022-09-09T00:21:20;100433.69;;;24.01;52.67
42647;BME280;31319;53.678;-6.254;2022-09-09T00:23:48;100426.50;;;24.03;52.19
42647;BME280;31319;53.678;-6.254;2022-09-09T00:26:42;100427.31;;;24.00;52.71
42647;BME280;31319;53.678;-6.254;2022-09-09T00:31:43;100424.91;;;24.02;52.31
42647;BME280;31319;53.678;-6.254;2022-09-09T00:34:13;100424.84;;;24.09;52.18
42647;BME280;31319;53.678;-6.254;2022-09-09T00:36:40;100424.84;;;24.09;52.20
42647;BME280;31319;53.678;-6.254;2022-09-09T00:39:12;100420.84;;;24.11;52.25
42647;BME280;31319;53.678;-6.254;2022-09-09T00:44:37;100417.00;;;23.97;52.79
42647;BME280;31319;53.678;-6.254;2022-09-09T00:50:03;100411.00;;;23.95;52.41
42647;BME280;31319;53.678;-6.254;2022-09-09T00:52:41;100406.63;;;23.98;52.37
42647;BME280;31319;53.678;-6.254;2022-09-09T00:55:21;100399.91;;;23.92;52.29
42647;BME280;31319;53.678;-6.254;2022-09-09T00:57:52;100401.84;;;23.95;52.17
42647;BME280;31319;53.678;-6.254;2022-09-09T01:00:29;100398.72;;;23.89;52.44
42647;BME280;31319;53.678;-6.254;2022-09-09T01:11:22;100396.78;;;23.83;52.81
42647;BME280;31319;53.678;-6.254;2022-09-09T01:13:58;100400.38;;;23.79;52.92
42647;BME280;31319;53.678;-6.254;2022-09-09T01:16:26;100399.66;;;23.72;52.93
42647;BME280;31319;53.678;-6.254;2022-09-09T01:18:54;100402.38;;;23.83;52.96
42647;BME280;31319;53.678;-6.254;2022-09-09T01:26:49;100404.44;;;23.75;52.98
42647;BME280;31319;53.678;-6.254;2022-09-09T01:29:18;100404.38;;;23.82;52.62
42647;BME280;31319;53.678;-6.254;2022-09-09T01:31:56;100386.84;;;23.82;52.87
42647;BME280;31319;53.678;-6.254;2022-09-09T01:34:24;100397.53;;;23.87;52.62
42647;BME280;31319;53.678;-6.254;2022-09-09T01:37:05;100395.22;;;23.78;53.04
42647;BME280;31319;53.678;-6.254;2022-09-09T01:39:33;100398.06;;;23.74;52.94
42647;BME280;31319;53.678;-6.254;2022-09-09T01:42:00;100396.06;;;23.75;53.30
42647;BME280;31319;53.678;-6.254;2022-09-09T01:44:27;100397.28;;;23.70;53.29
42647;BME280;31319;53.678;-6.254;2022-09-09T01:46:53;100388.97;;;23.67;53.44
42647;BME280;31319;53.678;-6.254;2022-09-09T01:49:19;100400.44;;;23.72;53.28
42647;BME280;31319;53.678;-6.254;2022-09-09T01:51:52;100399.34;;;23.56;53.83
42647;BME280;31319;53.678;-6.254;2022-09-09T01:54:19;100387.81;;;23.61;53.45
42647;BME280;31319;53.678;-6.254;2022-09-09T02:02:08;100395.34;;;23.64;53.74
42647;BME280;31319;53.678;-6.254;2022-09-09T02:04:54;100397.34;;;23.63;53.65
42647;BME280;31319;53.678;-6.254;2022-09-09T02:07:28;100396.50;;;23.70;53.20
42647;BME280;31319;53.678;-6.254;2022-09-09T02:10:11;100388.91;;;23.70;53.71
42647;BME280;31319;53.678;-6.254;2022-09-09T02:12:41;100396.53;;;23.66;53.65
42647;BME280;31319;53.678;-6.254;2022-09-09T02:15:26;100398.50;;;23.69;53.75
42647;BME280;31319;53.678;-6.254;2022-09-09T02:17:55;100396.88;;;23.72;53.16
42647;BME280;31319;53.678;-6.254;2022-09-09T02:20:23;100388.47;;;23.75;53.30
42647;BME280;31319;53.678;-6.254;2022-09-09T02:22:53;100394.97;;;23.62;54.12
42647;BME280;31319;53.678;-6.254;2022-09-09T02:25:24;100402.13;;;23.66;53.65
42647;BME280;31319;53.678;-6.254;2022-09-09T02:27:51;100394.50;;;23.70;53.55
42647;BME280;31319;53.678;-6.254;2022-09-09T02:30:18;100387.69;;;23.75;53.46
42647;BME280;31319;53.678;-6.254;2022-09-09T02:32:45;100384.91;;;23.71;53.78
42647;BME280;31319;53.678;-6.254;2022-09-09T02:35:15;100380.97;;;23.65;54.10
42647;BME280;31319;53.678;-6.254;2022-09-09T02:37:42;100382.59;;;23.63;54.15
42647;BME280;31319;53.678;-6.254;2022-09-09T02:40:12;100378.19;;;23.65;53.81
42647;BME280;31319;53.678;-6.254;2022-09-09T02:42:47;100376.31;;;23.48;54.22
42647;BME280;31319;53.678;-6.254;2022-09-09T02:45:17;100381.81;;;23.62;54.13
42647;BME280;31319;53.678;-6.254;2022-09-09T02:50:23;100369.53;;;23.49;54.79
42647;BME280;31319;53.678;-6.254;2022-09-09T02:53:16;100376.06;;;23.24;55.39
42647;BME280;31319;53.678;-6.254;2022-09-09T02:55:53;100358.88;;;23.33;55.04
42647;BME280;31319;53.678;-6.254;2022-09-09T02:58:20;100359.81;;;23.12;55.87
42647;BME280;31319;53.678;-6.254;2022-09-09T03:00:48;100367.28;;;23.26;55.16
42647;BME280;31319;53.678;-6.254;2022-09-09T03:03:14;100365.66;;;23.36;54.83
42647;BME280;31319;53.678;-6.254;2022-09-09T03:05:41;100368.78;;;23.45;54.51
42647;BME280;31319;53.678;-6.254;2022-09-09T03:08:07;100368.47;;;23.32;54.87
42647;BME280;31319;53.678;-6.254;2022-09-09T03:10:33;100370.78;;;23.41;54.90
42647;BME280;31319;53.678;-6.254;2022-09-09T03:13:00;100369.63;;;23.35;54.96
42647;BME280;31319;53.678;-6.254;2022-09-09T03:15:26;100370.34;;;23.46;54.61
42647;BME280;31319;53.678;-6.254;2022-09-09T03:17:56;100362.38;;;23.48;54.64
42647;BME280;31319;53.678;-6.254;2022-09-09T03:20:26;100364.78;;;23.46;54.89
42647;BME280;31319;53.678;-6.254;2022-09-09T03:22:53;100370.72;;;23.51;54.71
42647;BME280;31319;53.678;-6.254;2022-09-09T03:25:19;100369.56;;;23.42;55.05
42647;BME280;31319;53.678;-6.254;2022-09-09T03:27:45;100367.16;;;23.51;54.67
42647;BME280;31319;53.678;-6.254;2022-09-09T03:30:11;100377.50;;;23.50;54.89
42647;BME280;31319;53.678;-6.254;2022-09-09T03:32:36;100377.41;;;23.58;54.54
42647;BME280;31319;53.678;-6.254;2022-09-09T03:35:03;100369.56;;;23.45;55.00
42647;BME280;31319;53.678;-6.254;2022-09-09T03:37:29;100377.09;;;23.52;54.58
42647;BME280;31319;53.678;-6.254;2022-09-09T03:39:54;100374.31;;;23.48;54.96
42647;BME280;31319;53.678;-6.254;2022-09-09T03:42:21;100379.44;;;23.61;54.37
42647;BME280;31319;53.678;-6.254;2022-09-09T03:44:47;100379.88;;;23.52;54.61
42647;BME280;31319;53.678;-6.254;2022-09-09T03:47:16;100390.63;;;23.53;54.51
42647;BME280;31319;53.678;-6.254;2022-09-09T03:49:42;100385.41;;;23.59;54.46
42647;BME280;31319;53.678;-6.254;2022-09-09T03:52:08;100388.19;;;23.59;54.58
42647;BME280;31319;53.678;-6.254;2022-09-09T03:54:34;100386.19;;;23.60;54.12
42647;BME280;31319;53.678;-6.254;2022-09-09T03:57:00;100385.41;;;23.59;54.59
42647;BME280;31319;53.678;-6.254;2022-09-09T03:59:25;100387.75;;;23.68;54.00
42647;BME280;31319;53.678;-6.254;2022-09-09T04:01:51;100392.91;;;23.73;53.77
42647;BME280;31319;53.678;-6.254;2022-09-09T04:04:17;100399.28;;;23.70;54.01
42647;BME280;31319;53.678;-6.254;2022-09-09T04:06:42;100398.91;;;23.64;54.34
42647;BME280;31319;53.678;-6.254;2022-09-09T04:09:08;100392.53;;;23.67;54.08
42647;BME280;31319;53.678;-6.254;2022-09-09T04:11:33;100391.38;;;23.61;54.34
42647;BME280;31319;53.678;-6.254;2022-09-09T04:13:59;100393.31;;;23.68;54.33
42647;BME280;31319;53.678;-6.254;2022-09-09T04:16:24;100402.13;;;23.66;54.02
42647;BME280;31319;53.678;-6.254;2022-09-09T04:18:51;100396.06;;;23.75;53.85
42647;BME280;31319;53.678;-6.254;2022-09-09T04:21:18;100396.47;;;23.73;54.06
42647;BME280;31319;53.678;-6.254;2022-09-09T04:23:43;100398.88;;;23.71;53.68
42647;BME280;31319;53.678;-6.254;2022-09-09T04:26:09;100402.38;;;23.79;53.53
42647;BME280;31319;53.678;-6.254;2022-09-09T04:28:36;100408.38;;;23.77;53.49
42647;BME280;31319;53.678;-6.254;2022-09-09T04:31:07;100407.97;;;23.79;53.89
42647;BME280;31319;53.678;-6.254;2022-09-09T04:33:34;100403.53;;;23.85;53.58
42647;BME280;31319;53.678;-6.254;2022-09-09T04:36:00;100404.75;;;23.84;53.19
42647;BME280;31319;53.678;-6.254;2022-09-09T04:38:26;100405.53;;;23.85;53.15
42647;BME280;31319;53.678;-6.254;2022-09-09T04:40:52;100408.75;;;23.79;53.51
42647;BME280;31319;53.678;-6.254;2022-09-09T04:43:19;100407.97;;;23.79;53.63
42647;BME280;31319;53.678;-6.254;2022-09-09T04:45:50;100407.69;;;23.66;54.07
42647;BME280;31319;53.678;-6.254;2022-09-09T04:48:17;100408.91;;;23.58;54.22
42647;BME280;31319;53.678;-6.254;2022-09-09T04:50:42;100413.22;;;23.73;53.80
42647;BME280;31319;53.678;-6.254;2022-09-09T04:53:08;100409.22;;;23.74;53.57
42647;BME280;31319;53.678;-6.254;2022-09-09T04:55:34;100413.22;;;23.73;53.65
42647;BME280;31319;53.678;-6.254;2022-09-09T04:58:07;100409.22;;;23.74;53.62
42647;BME280;31319;53.678;-6.254;2022-09-09T05:00:34;100406.00;;;23.76;53.71
42647;BME280;31319;53.678;-6.254;2022-09-09T05:03:03;100411.66;;;23.65;54.13
42647;BME280;31319;53.678;-6.254;2022-09-09T05:05:30;100419.97;;;23.76;53.61
42647;BME280;31319;53.678;-6.254;2022-09-09T05:08:04;100423.50;;;23.80;53.46
42647;BME280;31319;53.678;-6.254;2022-09-09T05:10:30;100420.31;;;23.82;53.27
42647;BME280;31319;53.678;-6.254;2022-09-09T05:12:56;100414.00;;;23.74;53.54
42647;BME280;31319;53.678;-6.254;2022-09-09T05:15:22;100421.19;;;23.71;53.58
42647;BME280;31319;53.678;-6.254;2022-09-09T05:17:48;100414.06;;;23.67;54.12
42647;BME280;31319;53.678;-6.254;2022-09-09T05:20:13;100424.44;;;23.63;54.32
42647;BME280;31319;53.678;-6.254;2022-09-09T05:22:39;100425.19;;;23.70;53.84
42647;BME280;31319;53.678;-6.254;2022-09-09T05:25:06;100435.13;;;23.75;53.59
42647;BME280;31319;53.678;-6.254;2022-09-09T05:27:33;100429.53;;;23.75;53.78
42647;BME280;31319;53.678;-6.254;2022-09-09T05:29:59;100439.13;;;23.70;53.80
42647;BME280;31319;53.678;-6.254;2022-09-09T05:32:24;100434.88;;;23.48;54.72
42647;BME280;31319;53.678;-6.254;2022-09-09T05:34:51;100433.97;;;23.69;53.87
42647;BME280;31319;53.678;-6.254;2022-09-09T05:37:18;100433.97;;;23.69;53.88
42647;BME280;31319;53.678;-6.254;2022-09-09T05:39:43;100436.75;;;23.69;53.86
42647;BME280;31319;53.678;-6.254;2022-09-09T05:42:09;100442.78;;;23.57;53.94
42647;BME280;31319;53.678;-6.254;2022-09-09T05:44:35;100449.53;;;23.59;53.94
42647;BME280;31319;53.678;-6.254;2022-09-09T05:47:02;100453.53;;;23.58;53.97
42647;BME280;31319;53.678;-6.254;2022-09-09T05:49:27;100448.34;;;23.57;54.03
42647;BME280;31319;53.678;-6.254;2022-09-09T05:51:53;100463.94;;;23.50;54.52
42647;BME280;31319;53.678;-6.254;2022-09-09T05:54:19;100461.09;;;23.61;53.81
42647;BME280;31319;53.678;-6.254;2022-09-09T05:56:44;100469.88;;;23.56;54.26
42647;BME280;31319;53.678;-6.254;2022-09-09T05:59:10;100472.25;;;23.61;53.95
42647;BME280;31319;53.678;-6.254;2022-09-09T06:01:37;100470.69;;;23.53;54.26
42647;BME280;31319;53.678;-6.254;2022-09-09T06:04:05;100478.59;;;23.65;54.01
42647;BME280;31319;53.678;-6.254;2022-09-09T06:06:34;100488.22;;;23.50;54.50
42647;BME280;31319;53.678;-6.254;2022-09-09T06:09:06;100483.84;;;23.49;54.48
42647;BME280;31319;53.678;-6.254;2022-09-09T06:11:35;100484.59;;;23.57;53.88
42647;BME280;31319;53.678;-6.254;2022-09-09T06:14:01;100488.97;;;23.58;54.31
42647;BME280;31319;53.678;-6.254;2022-09-09T06:16:28;100485.78;;;23.59;53.85
42647;BME280;31319;53.678;-6.254;2022-09-09T06:18:55;100493.00;;;23.60;54.06
42647;BME280;31319;53.678;-6.254;2022-09-09T06:21:30;100497.38;;;23.61;54.33
42647;BME280;31319;53.678;-6.254;2022-09-09T06:23:56;100502.13;;;23.64;54.05
42647;BME280;31319;53.678;-6.254;2022-09-09T06:26:35;100509.28;;;23.65;54.22
42647;BME280;31319;53.678;-6.254;2022-09-09T06:29:03;100516.00;;;23.71;54.14
42647;BME280;31319;53.678;-6.254;2022-09-09T06:31:31;100507.31;;;23.66;53.95
42647;BME280;31319;53.678;-6.254;2022-09-09T06:33:58;100512.47;;;23.64;54.56
42647;BME280;31319;53.678;-6.254;2022-09-09T06:36:35;100515.31;;;23.60;54.58
42647;BME280;31319;53.678;-6.254;2022-09-09T06:39:02;100520.34;;;23.79;54.06
42647;BME280;31319;53.678;-6.254;2022-09-09T06:41:30;100525.59;;;23.70;54.47
42647;BME280;31319;53.678;-6.254;2022-09-09T06:43:56;100538.28;;;23.78;54.64
42647;BME280;31319;53.678;-6.254;2022-09-09T06:46:24;100531.88;;;23.89;54.35
42647;BME280;31319;53.678;-6.254;2022-09-09T06:48:53;100546.16;;;23.98;53.88
42647;BME280;31319;53.678;-6.254;2022-09-09T06:51:22;100542.16;;;23.99;54.19
42647;BME280;31319;53.678;-6.254;2022-09-09T06:53:54;100546.53;;;24.00;54.32
42647;BME280;31319;53.678;-6.254;2022-09-09T06:56:29;100542.97;;;23.96;54.52
42647;BME280;31319;53.678;-6.254;2022-09-09T06:58:57;100549.69;;;24.02;54.54
42647;BME280;31319;53.678;-6.254;2022-09-09T07:01:32;100558.81;;;24.09;54.46
42647;BME280;31319;53.678;-6.254;2022-09-09T07:03:59;100562.44;;;24.06;54.49
42647;BME280;31319;53.678;-6.254;2022-09-09T07:06:29;100565.94;;;24.18;54.71
42647;BME280;31319;53.678;-6.254;2022-09-09T07:08:57;100568.72;;;24.21;54.67
42647;BME280;31319;53.678;-6.254;2022-09-09T07:11:29;100586.72;;;24.09;55.92
42647;BME280;31319;53.678;-6.254;2022-09-09T07:13:55;100581.03;;;24.27;55.42
42647;BME280;31319;53.678;-6.254;2022-09-09T07:16:23;100577.38;;;24.38;55.40
42647;BME280;31319;53.678;-6.254;2022-09-09T07:18:50;100580.81;;;24.56;55.23
42647;BME280;31319;53.678;-6.254;2022-09-09T07:21:17;100580.38;;;24.61;54.75
42647;BME280;31319;53.678;-6.254;2022-09-09T07:23:43;100579.94;;;24.66;54.93
42647;BME280;31319;53.678;-6.254;2022-09-09T07:26:15;100584.75;;;24.66;54.52
42647;BME280;31319;53.678;-6.254;2022-09-09T07:28:41;100587.16;;;24.60;54.61
42647;BME280;31319;53.678;-6.254;2022-09-09T07:31:14;100584.75;;;24.62;54.58
42647;BME280;31319;53.678;-6.254;2022-09-09T07:33:42;100592.31;;;24.65;54.74
42647;BME280;31319;53.678;-6.254;2022-09-09T07:36:10;100597.50;;;24.63;54.38
42647;BME280;31319;53.678;-6.254;2022-09-09T07:38:43;100599.50;;;24.66;54.83
42647;BME280;31319;53.678;-6.254;2022-09-09T07:41:12;100603.88;;;24.67;54.11
42647;BME280;31319;53.678;-6.254;2022-09-09T07:43:39;100602.97;;;24.77;53.92
42647;BME280;31319;53.678;-6.254;2022-09-09T07:46:06;100612.16;;;24.78;54.04
42647;BME280;31319;53.678;-6.254;2022-09-09T07:48:32;100610.19;;;24.75;54.01
42647;BME280;31319;53.678;-6.254;2022-09-09T07:53:31;100621.31;;;24.78;53.76
42647;BME280;31319;53.678;-6.254;2022-09-09T07:56:17;100627.44;;;24.66;54.10
42647;BME280;31319;53.678;-6.254;2022-09-09T07:58:46;100624.22;;;24.71;53.94
42647;BME280;31319;53.678;-6.254;2022-09-09T08:01:27;100632.59;;;24.71;53.98
42647;BME280;31319;53.678;-6.254;2022-09-09T08:06:20;100618.50;;;24.82;54.08
42647;BME280;31319;53.678;-6.254;2022-09-09T08:08:49;100630.84;;;24.84;53.97
42647;BME280;31319;53.678;-6.254;2022-09-09T08:11:16;100633.97;;;24.94;53.95
42647;BME280;31319;53.678;-6.254;2022-09-09T08:13:43;100651.97;;;24.89;53.76
42647;BME280;31319;53.678;-6.254;2022-09-09T08:16:16;100653.91;;;24.96;54.07
42647;BME280;31319;53.678;-6.254;2022-09-09T08:18:42;100652.66;;;25.00;53.83
42647;BME280;31319;53.678;-6.254;2022-09-09T08:21:12;100655.13;;;24.95;53.96
42647;BME280;31319;53.678;-6.254;2022-09-09T08:23:40;100653.81;;;25.10;53.56
42647;BME280;31319;53.678;-6.254;2022-09-09T08:28:40;100657.78;;;25.09;53.80
42647;BME280;31319;53.678;-6.254;2022-09-09T08:31:11;100665.03;;;25.03;54.11
42647;BME280;31319;53.678;-6.254;2022-09-09T08:33:38;100669.31;;;25.18;53.87
42647;BME280;31319;53.678;-6.254;2022-09-09T08:36:05;100674.44;;;25.23;53.65
42647;BME280;31319;53.678;-6.254;2022-09-09T08:38:32;100679.25;;;25.23;53.63
42647;BME280;31319;53.678;-6.254;2022-09-09T08:41:07;100683.22;;;25.25;53.47
42647;BME280;31319;53.678;-6.254;2022-09-09T08:43:36;100686.03;;;25.22;53.67
42647;BME280;31319;53.678;-6.254;2022-09-09T08:46:11;100692.47;;;25.18;53.68
42647;BME280;31319;53.678;-6.254;2022-09-09T08:51:08;100691.94;;;25.31;53.09
42647;BME280;31319;53.678;-6.254;2022-09-09T08:53:42;100699.03;;;25.42;52.90
42647;BME280;31319;53.678;-6.254;2022-09-09T08:56:12;100703.75;;;25.49;52.81
42647;BME280;31319;53.678;-6.254;2022-09-09T08:58:47;100703.41;;;25.43;52.99
42647;BME280;31319;53.678;-6.254;2022-09-09T09:01:43;100713.31;;;25.52;52.84
42647;BME280;31319;53.678;-6.254;2022-09-09T09:04:46;100715.53;;;25.67;52.40
42647;BME280;31319;53.678;-6.254;2022-09-09T09:12:32;100727.53;;;25.71;52.48
42647;BME280;31319;53.678;-6.254;2022-09-09T09:15:00;100732.19;;;25.82;52.29
42647;BME280;31319;53.678;-6.254;2022-09-09T09:17:28;100735.84;;;25.75;52.54
42647;BME280;31319;53.678;-6.254;2022-09-09T09:19:56;100741.28;;;25.89;52.03
42647;BME280;31319;53.678;-6.254;2022-09-09T09:22:39;100744.53;;;25.84;51.43
42647;BME280;31319;53.678;-6.254;2022-09-09T09:30:26;100744.59;;;25.81;51.38
42647;BME280;31319;53.678;-6.254;2022-09-09T09:33:22;100747.66;;;25.93;51.26
42647;BME280;31319;53.678;-6.254;2022-09-09T09:35:50;100753.66;;;25.92;51.13
42647;BME280;31319;53.678;-6.254;2022-09-09T09:38:21;100754.50;;;25.89;51.41
42647;BME280;31319;53.678;-6.254;2022-09-09T09:41:05;100759.22;;;25.95;50.97
42647;BME280;31319;53.678;-6.254;2022-09-09T09:43:33;100763.44;;;26.11;50.48
42647;BME280;31319;53.678;-6.254;2022-09-09T09:45:59;100768.66;;;26.09;50.54
42647;BME280;31319;53.678;-6.254;2022-09-09T09:48:27;100774.84;;;26.27;49.69
42647;BME280;31319;53.678;-6.254;2022-09-09T09:51:07;100774.09;;;26.23;50.31
42647;BME280;31319;53.678;-6.254;2022-09-09T09:53:36;100781.75;;;26.19;50.11
42647;BME280;31319;53.678;-6.254;2022-09-09T09:56:04;100785.59;;;26.28;49.94
42647;BME280;31319;53.678;-6.254;2022-09-09T09:58:52;100790.94;;;26.19;49.72
42647;BME280;31319;53.678;-6.254;2022-09-09T10:01:30;100786.91;;;26.20;49.70
42647;BME280;31319;53.678;-6.254;2022-09-09T10:04:13;100790.13;;;26.19;49.37
42647;BME280;31319;53.678;-6.254;2022-09-09T10:06:40;100790.50;;;26.21;49.47
42647;BME280;31319;53.678;-6.254;2022-09-09T10:09:26;100801.72;;;26.21;48.95
42647;BME280;31319;53.678;-6.254;2022-09-09T10:15:14;100801.91;;;26.41;49.40
42647;BME280;31319;53.678;-6.254;2022-09-09T10:17:54;100801.72;;;26.55;49.33
42647;BME280;31319;53.678;-6.254;2022-09-09T10:20:32;100799.03;;;26.75;49.03
42647;BME280;31319;53.678;-6.254;2022-09-09T10:23:29;100796.81;;;26.90;48.59
42647;BME280;31319;53.678;-6.254;2022-09-09T10:46:49;100819.06;;;27.27;46.77
42647;BME280;31319;53.678;-6.254;2022-09-09T10:57:33;100810.53;;;27.58;46.18
42647;BME280;31319;53.678;-6.254;2022-09-09T11:00:13;100835.09;;;27.54;45.89
42647;BME280;31319;53.678;-6.254;2022-09-09T11:02:41;100838.25;;;27.56;46.31
42647;BME280;31319;53.678;-6.254;2022-09-09T11:05:43;100840.25;;;27.55;45.79
42647;BME280;31319;53.678;-6.254;2022-09-09T11:08:20;100848.44;;;27.46;46.25
42647;BME280;31319;53.678;-6.254;2022-09-09T11:11:04;100849.91;;;27.54;45.91
42647;BME280;31319;53.678;-6.254;2022-09-09T11:13:57;100854.97;;;27.63;45.85
42647;BME280;31319;53.678;-6.254;2022-09-09T11:16:29;100859.19;;;27.51;45.88
42647;BME280;31319;53.678;-6.254;2022-09-09T11:19:15;100855.63;;;27.47;45.46
42647;BME280;31319;53.678;-6.254;2022-09-09T11:21:47;100859.78;;;27.62;45.31
42647;BME280;31319;53.678;-6.254;2022-09-09T11:24:27;100868.22;;;27.62;45.17
42647;BME280;31319;53.678;-6.254;2022-09-09T11:27:06;100857.19;;;27.75;45.01
42647;BME280;31319;53.678;-6.254;2022-09-09T11:30:02;100860.72;;;27.79;45.15
42647;BME280;31319;53.678;-6.254;2022-09-09T11:35:24;100867.88;;;27.84;45.10
42647;BME280;31319;53.678;-6.254;2022-09-09T11:38:00;100857.97;;;27.99;44.71
42647;BME280;31319;53.678;-6.254;2022-09-09T11:40:31;100866.75;;;28.01;44.92
42647;BME280;31319;53.678;-6.254;2022-09-09T11:45:39;100869.69;;;27.94;44.86
42647;BME280;31319;53.678;-6.254;2022-09-09T11:48:22;100871.91;;;27.83;43.97
42647;BME280;31319;53.678;-6.254;2022-09-09T11:50:58;100877.50;;;27.59;44.19
42647;BME280;31319;53.678;-6.254;2022-09-09T11:53:24;100878.47;;;27.73;44.33
42647;BME280;31319;53.678;-6.254;2022-09-09T11:56:11;100883.50;;;27.58;45.02
42647;BME280;31319;53.678;-6.254;2022-09-09T11:58:41;100890.06;;;27.51;45.23
42647;BME280;31319;53.678;-6.254;2022-09-09T12:01:27;100901.97;;;27.32;45.43
42647;BME280;31319;53.678;-6.254;2022-09-09T12:06:32;100887.41;;;27.68;44.57
42647;BME280;31319;53.678;-6.254;2022-09-09T12:09:07;100889.13;;;27.58;44.44
42647;BME280;31319;53.678;-6.254;2022-09-09T12:11:34;100892.34;;;27.56;44.98
42647;BME280;31319;53.678;-6.254;2022-09-09T12:14:01;100895.13;;;27.33;45.39
42647;BME280;31319;53.678;-6.254;2022-09-09T12:16:35;100899.66;;;27.50;45.21
42647;BME280;31319;53.678;-6.254;2022-09-09T12:24:18;100897.31;;;27.22;46.02
42647;BME280;31319;53.678;-6.254;2022-09-09T12:27:01;100906.09;;;27.24;46.14
42647;BME280;31319;53.678;-6.254;2022-09-09T12:32:36;100906.03;;;27.27;46.27
42647;BME280;31319;53.678;-6.254;2022-09-09T12:37:58;100909.38;;;27.46;46.15
42647;BME280;31319;53.678;-6.254;2022-09-09T12:40:28;100918.72;;;27.62;45.88
42647;BME280;31319;53.678;-6.254;2022-09-09T12:42:54;100917.72;;;27.76;45.41
42647;BME280;31319;53.678;-6.254;2022-09-09T12:45:29;100917.31;;;27.78;45.49
42647;BME280;31319;53.678;-6.254;2022-09-09T12:48:06;100921.09;;;27.68;45.64
42647;BME280;31319;53.678;-6.254;2022-09-09T12:50:35;100927.72;;;27.50;45.49
42647;BME280;31319;53.678;-6.254;2022-09-09T12:53:07;100924.50;;;27.25;46.53
42647;BME280;31319;53.678;-6.254;2022-09-09T12:55:37;100923.88;;;27.14;46.90
42647;BME280;31319;53.678;-6.254;2022-09-09T12:58:05;100931.53;;;27.09;46.51
42647;BME280;31319;53.678;-6.254;2022-09-09T13:00:32;100940.69;;;26.83;47.81
42647;BME280;31319;53.678;-6.254;2022-09-09T13:03:00;100943.66;;;26.69;47.81
42647;BME280;31319;53.678;-6.254;2022-09-09T13:05:27;100946.16;;;26.60;48.25
42647;BME280;31319;53.678;-6.254;2022-09-09T13:08:13;100953.97;;;26.41;49.02
42647;BME280;31319;53.678;-6.254;2022-09-09T13:10:49;100956.06;;;26.30;49.47
42647;BME280;31319;53.678;-6.254;2022-09-09T13:13:26;100949.03;;;26.52;49.33
42647;BME280;31319;53.678;-6.254;2022-09-09T13:15:58;100954.53;;;26.63;49.00
42647;BME280;31319;53.678;-6.254;2022-09-09T13:18:29;100962.44;;;26.72;48.94
42647;BME280;31319;53.678;-6.254;2022-09-09T13:20:56;100959.59;;;26.75;48.97
42647;BME280;31319;53.678;-6.254;2022-09-09T13:23:34;100961.22;;;26.73;48.60
42647;BME280;31319;53.678;-6.254;2022-09-09T13:26:22;100968.72;;;26.83;48.02
42647;BME280;31319;53.678;-6.254;2022-09-09T13:28:48;100972.59;;;26.93;47.75
42647;BME280;31319;53.678;-6.254;2022-09-09T13:31:44;100973.34;;;26.97;46.92
42647;BME280;31319;53.678;-6.254;2022-09-09T13:34:30;100980.66;;;26.91;47.41
42647;BME280;31319;53.678;-6.254;2022-09-09T13:37:01;100976.41;;;27.09;46.80
42647;BME280;31319;53.678;-6.254;2022-09-09T13:39:37;100984.41;;;27.11;46.86
42647;BME280;31319;53.678;-6.254;2022-09-09T13:42:03;100981.50;;;27.18;46.96
42647;BME280;31319;53.678;-6.254;2022-09-09T13:44:37;100983.44;;;27.25;46.55
42647;BME280;31319;53.678;-6.254;2022-09-09T13:47:20;100981.88;;;27.20;46.27
42647;BME280;31319;53.678;-6.254;2022-09-09T13:49:48;100987.72;;;27.33;46.06
42647;BME280;31319;53.678;-6.254;2022-09-09T13:52:16;100989.03;;;27.25;45.89
42647;BME280;31319;53.678;-6.254;2022-09-09T13:54:47;100990.06;;;27.07;45.68
42647;BME280;31319;53.678;-6.254;2022-09-09T13:57:24;100980.81;;;27.10;45.75
42647;BME280;31319;53.678;-6.254;2022-09-09T13:59:51;100991.66;;;27.08;45.72
42647;BME280;31319;53.678;-6.254;2022-09-09T14:02:18;100988.91;;;27.01;45.58
42647;BME280;31319;53.678;-6.254;2022-09-09T14:04:44;100991.28;;;27.03;45.50
42647;BME280;31319;53.678;-6.254;2022-09-09T14:07:15;100986.47;;;27.03;46.24
42647;BME280;31319;53.678;-6.254;2022-09-09T14:09:42;100986.09;;;27.01;46.02
42647;BME280;31319;53.678;-6.254;2022-09-09T14:12:14;100985.97;;;27.16;45.92
42647;BME280;31319;53.678;-6.254;2022-09-09T14:14:41;100989.97;;;27.15;46.25
42647;BME280;31319;53.678;-6.254;2022-09-09T14:17:09;100995.44;;;27.25;46.20
42647;BME280;31319;53.678;-6.254;2022-09-09T14:19:36;100985.72;;;27.33;45.81
42647;BME280;31319;53.678;-6.254;2022-09-09T14:22:03;100991.22;;;27.41;45.43
42647;BME280;31319;53.678;-6.254;2022-09-09T14:24:29;100996.13;;;27.33;45.30
42647;BME280;31319;53.678;-6.254;2022-09-09T14:26:55;100993.41;;;27.29;45.48
42647;BME280;31319;53.678;-6.254;2022-09-09T14:29:21;100994.19;;;27.30;45.77
42647;BME280;31319;53.678;-6.254;2022-09-09T14:31:47;100996.53;;;27.62;45.14
42647;BME280;31319;53.678;-6.254;2022-09-09T14:34:13;101001.47;;;27.81;45.30
42647;BME280;31319;53.678;-6.254;2022-09-09T14:36:40;101001.63;;;27.98;45.17
42647;BME280;31319;53.678;-6.254;2022-09-09T14:39:07;100990.06;;;28.15;45.11
42647;BME280;31319;53.678;-6.254;2022-09-09T14:41:34;100997.50;;;28.26;44.69
42647;BME280;31319;53.678;-6.254;2022-09-09T14:43:59;100998.50;;;28.39;44.66
42647;BME280;31319;53.678;-6.254;2022-09-09T14:46:25;100998.19;;;28.57;44.17
42647;BME280;31319;53.678;-6.254;2022-09-09T14:48:52;101002.81;;;28.67;43.56
42647;BME280;31319;53.678;-6.254;2022-09-09T14:51:20;101016.47;;;28.45;43.40